Decoded Metar for LFBD (BORDEAUX in FRANCE) (IATA:BOD) | Meteo·Mobile Aviation Weather
aviador You're here:

LFBD Decoded Metar

BORDEAUX in FRANCE
Report Time2018-09-20 14:00:00
UTC Time2018-09-20 14:11:33
Flight Rules vfr VFR
Wind100° at 04 kt
W.Decomp.*RWY 11: 4.0 kt HW 0.6 kt LCW
RWY 05: 2.5 kt HW 3.1 kt RCW
W.Rank100° ranks 22
Current wind is below 100° avg. (5.7)
Visibility9999 m
Phenomena:N/A
Clouds:Few 012 Hf
Expected CloudBase > 5,200 ft AGL from Temp-Dew spread
CeilingNone
Temp30°C (ISA +15)
Dew Point17°C (46% RH)
Heat Index30.5°C
QNH1017 hPa
Density Alt2,090 ft
Elevation200 ft
Report Wrong Elevation
Raw Report
METAR LFBD 201400Z AUTO 10004KT 030V170 9999 FEW012 30/17 Q1017
NOSIG=

Extra information for LFBD:More info

Metar Taf Metar & Taf Last 4 Metars F.Rules Stats Wind Profile Meteogram Temp Stats Airport Information Weather charts Add Link Nearby VenuesMetar ALERT Operation Metar Decoded Social comments